Alton, Missouri
Current Conditions -  °F | °C
As of 2:53 PM on Saturday 20 Dec 2014 (Local Time) from KUNO Reporting Station
Overcast Overcast  
Wind Chill: 38°   Ceiling: 2000
Heat Index: 42°   Visibility: 10mi
Dew Point: 35°   Wind: 7mph
Humidity: 76%   Direction: 200°SSW
Pressure: 30.2"   Gusts: NA
Location:  36.69°N, 91.4°W
Report Text: KUNO 202053Z AUTO 20006KT 10SM OVC020 06/02 A3020 RMK AO2 SLP232 T00560017 55010 $
Loading
Personal Weather Stations






























Interactive Weather Map New forecast layout! Learn more

10-Day Weather Forecast

Advertisements
Track Severe Weather on mobile